Terminal Aerodrome Forecast
Issued by NWS

Home | Current Version | Previous Version | Text Only | Print | Product List | Glossary Off
Versions: 1 2 3 4 5 6 7 8 9 10 11 12 13 14 15

000
FTUS43 KTOP 222324
TAFMHK
TAF
KMHK 222324Z 2300/2324 17011KT P6SM BKN150
     FM230500 17010KT P6SM FEW015 BKN150 WS013/21043KT
     FM231300 18010G21KT P6SM BKN012
     FM231500 19012G22KT P6SM BKN025
     FM231600 19012G22KT P6SM SCT035=

USA.gov is the U.S. government's official web portal to all federal, state and local government web resources and services.